This is the latest recevied weather packets stored in our database for station/object G4ZMG. If no packets are shown the sender has not sent any weather packets the latest 10 day(s).
| Time | Temp. | Humidity | Pressure | Rain* | Wind** | Luminosity | Snow |
|---|---|---|---|---|---|---|---|
| 1777608010 | 8.89° C | 70% | 1017.9 hPa | 0 mm | - | 0 W/m² | - |
| 1777607403 | 8.89° C | 70% | 1017.9 hPa | 0 mm | - | 0 W/m² | - |
| 1777606845 | 8.89° C | 69% | 1017.8 hPa | 0 mm | - | 0 W/m² | - |
| 1777606234 | 8.89° C | 68% | 1017.7 hPa | 0 mm | - | 0 W/m² | - |
| 1777605625 | 9.44° C | 67% | 1017.7 hPa | 0 mm | - | 0 W/m² | - |
| 1777605008 | 8.89° C | 68% | 1017.7 hPa | 0 mm | - | 0 W/m² | - |
| 1777604436 | 8.89° C | 68% | 1017.8 hPa | 0 mm | - | 0 W/m² | - |
| 1777603825 | 9.44° C | 66% | 1017.9 hPa | 0 mm | - | 0 W/m² | - |
| 1777603207 | 9.44° C | 65% | 1017.9 hPa | 0 mm | - | 0 W/m² | - |
| 1777602641 | 9.44° C | 65% | 1017.9 hPa | 0 mm | - | 0 W/m² | - |
| 1777602030 | 9.44° C | 65% | 1017.9 hPa | 0 mm | - | 0 W/m² | - |
| 1777600842 | 9.44° C | 64% | 1018.1 hPa | 0 mm | - | 0 W/m² | - |
| 1777587009 | 12.78° C | 55% | 1019.4 hPa | 0 mm | - | 0 W/m² | - |
| 1777586446 | 12.78° C | 55% | 1019.5 hPa | 0 mm | - | 0 W/m² | - |
| 1777585838 | 12.78° C | 55% | 1019.5 hPa | 0 mm | - | 0 W/m² | - |
| 1777584004 | 13.33° C | 55% | 1019.4 hPa | 0 mm | - | 0 W/m² | - |
| 1777583446 | 13.33° C | 55% | 1019.2 hPa | 0 mm | - | 0 W/m² | - |
| 1777582808 | 13.89° C | 54% | 1019.2 hPa | 0 mm | - | 0 W/m² | - |
| 1777582246 | 13.89° C | 54% | 1019.2 hPa | 0 mm | - | 0 W/m² | - |
| 1777581030 | 13.89° C | 54% | 1018.9 hPa | 0 mm | - | 0 W/m² | - |
| 1777580408 | 14.44° C | 54% | 1018.9 hPa | 0 mm | - | 0 W/m² | - |
| 1777577404 | 16.11° C | 48% | 1018.4 hPa | 0 mm | - | 5 W/m² | - |
| 1777576203 | 16.67° C | 46% | 1018.1 hPa | 0 mm | - | 16 W/m² | - |
| 1777574405 | 17.78° C | 43% | 1017.9 hPa | 0 mm | - | 32 W/m² | - |
| 1777572605 | 18.33° C | 41% | 1017.7 hPa | 0 mm | - | 37 W/m² | - |
* Rain latest hour (hover to see other rain measurements)
** Current wind speed in m/s (hover to see current wind gust speed)